createdAt,value
2018-08-30T00:03:58.856Z,49.5
2018-08-30T00:09:01.328Z,49.6
2018-08-30T00:14:03.797Z,49.7
2018-08-30T00:19:06.534Z,49.9
2018-08-30T00:29:11.218Z,50.1
2018-08-30T00:34:13.524Z,50.2
2018-08-30T00:39:15.980Z,50
2018-08-30T00:44:18.393Z,50.1
2018-08-30T00:49:20.822Z,50
2018-08-30T00:59:25.823Z,49.6
2018-08-30T01:04:28.438Z,49.3
2018-08-30T01:09:30.611Z,49.4
2018-08-30T01:14:33.041Z,49.4
2018-08-30T01:19:35.483Z,49.5
2018-08-30T01:24:37.926Z,49.6
2018-08-30T01:34:43.286Z,49.8
2018-08-30T01:39:45.265Z,50
2018-08-30T01:44:47.688Z,50.2
2018-08-30T01:59:55.733Z,50.7
2018-08-30T02:04:57.449Z,50.8
2018-08-30T02:09:59.922Z,50.8
2018-08-30T02:20:04.919Z,51.5
2018-08-30T02:25:07.204Z,52.1
2018-08-30T02:30:09.668Z,52.1
2018-08-30T02:35:12.078Z,51.7
2018-08-30T02:45:16.974Z,51.2
2018-08-30T02:50:19.406Z,51.2
2018-08-30T03:00:26.454Z,54.2
2018-08-30T03:05:26.907Z,55.3
2018-08-30T03:10:29.477Z,54.8
2018-08-30T03:15:31.946Z,54.9
2018-08-30T03:20:34.290Z,55.8
2018-08-30T03:25:36.638Z,55.7
2018-08-30T03:30:40.227Z,56.3
2018-08-30T03:40:43.899Z,58
2018-08-30T03:50:48.740Z,58.8
2018-08-30T04:00:53.622Z,60
2018-08-30T04:10:58.452Z,62.1
2018-08-30T04:16:00.971Z,63.5
2018-08-30T04:21:03.356Z,64.9
2018-08-30T04:26:05.783Z,65.9
2018-08-30T04:31:08.219Z,67.3
2018-08-30T04:36:10.655Z,68.1
2018-08-30T04:41:13.250Z,68.2
2018-08-30T04:56:20.563Z,70.8
2018-08-30T05:01:23.292Z,71.2
2018-08-30T05:16:30.275Z,70.9
2018-08-30T05:36:40.040Z,71.7
2018-08-30T05:41:42.458Z,72.2
2018-08-30T05:46:44.828Z,72.4
2018-08-30T05:51:47.276Z,72.5
2018-08-30T05:56:49.781Z,72.3
2018-08-30T06:01:52.142Z,72.8
2018-08-30T06:06:54.600Z,72.4
2018-08-30T06:11:57.030Z,72.6
2018-08-30T06:16:59.481Z,72.6
2018-08-30T06:27:04.613Z,72.8
2018-08-30T06:37:09.257Z,72.8
2018-08-30T06:42:11.666Z,72.9
2018-08-30T06:47:14.178Z,72.8
2018-08-30T06:57:19.007Z,72.8
2018-08-30T07:17:28.895Z,72.5
2018-08-30T07:32:36.088Z,72
2018-08-30T07:37:38.646Z,72.3
2018-08-30T07:42:40.991Z,73.5
2018-08-30T07:47:43.497Z,72.7
2018-08-30T07:52:45.878Z,72.6
2018-08-30T07:57:48.377Z,73.1
2018-08-30T08:02:50.728Z,72.9
2018-08-30T08:28:03.006Z,71.8
2018-08-30T08:33:05.849Z,71.8
2018-08-30T08:38:08.199Z,71.7
2018-08-30T08:58:17.596Z,72.4
2018-08-30T09:08:22.508Z,72.5
2018-08-30T09:18:27.442Z,71.8
2018-08-30T09:23:29.861Z,71.5
2018-08-30T09:28:32.239Z,71.1
2018-08-30T09:33:35.031Z,70.8
2018-08-30T09:38:37.146Z,70.7
2018-08-30T09:43:39.577Z,70.7
2018-08-30T09:48:42.008Z,70.6
2018-08-30T09:58:46.891Z,70.9
2018-08-30T10:03:49.495Z,71.6
2018-08-30T10:08:51.798Z,71.5
2018-08-30T10:18:56.889Z,70.2
2018-08-30T10:23:59.103Z,70.4
2018-08-30T10:29:01.581Z,70.9
2018-08-30T10:34:04.077Z,71.5
2018-08-30T10:39:06.429Z,71.3
2018-08-30T10:44:08.891Z,71.2
2018-08-30T10:49:11.439Z,69.9
2018-08-30T10:54:13.722Z,68.6
2018-08-30T11:04:18.882Z,67.4
2018-08-30T11:09:21.239Z,68.6
2018-08-30T11:14:23.484Z,69.7
2018-08-30T11:24:28.571Z,71.2
2018-08-30T11:29:30.827Z,71.4
2018-08-30T11:34:33.251Z,71.8
2018-08-30T11:39:35.749Z,72.1
2018-08-30T11:44:38.133Z,72.5
2018-08-30T11:49:40.864Z,72.6
2018-08-30T11:54:43.087Z,72.4
2018-08-30T11:59:45.522Z,72.4
2018-08-30T12:04:49.633Z,72.1
2018-08-30T12:09:50.848Z,72.3
2018-08-30T12:14:52.786Z,72.1
2018-08-30T12:19:55.330Z,71.8
2018-08-30T12:24:57.676Z,71.7
2018-08-30T12:30:00.141Z,72
2018-08-30T12:35:02.811Z,72.3
2018-08-30T12:50:10.206Z,71.6
2018-08-30T12:55:12.410Z,71.4
2018-08-30T13:10:20.123Z,70.9
2018-08-30T13:15:22.743Z,70.2
2018-08-30T13:35:32.429Z,68.9
2018-08-30T13:40:35.082Z,68.8
2018-08-30T13:45:37.328Z,68.9
2018-08-30T13:50:39.658Z,68.8
2018-08-30T13:55:42.004Z,68.6
2018-08-30T14:00:44.815Z,68.4
2018-08-30T14:05:46.723Z,68.6
2018-08-30T14:10:49.341Z,68.6
2018-08-30T14:15:51.336Z,68.6
2018-08-30T14:20:53.784Z,68.7
2018-08-30T14:25:56.233Z,68.9
2018-08-30T14:30:58.788Z,68.9
2018-08-30T14:36:01.257Z,68.8
2018-08-30T14:41:03.865Z,68.8
2018-08-30T14:51:08.511Z,68.5
2018-08-30T15:11:18.409Z,68.7
2018-08-30T15:16:20.655Z,69.8
2018-08-30T15:21:23.076Z,68.8
2018-08-30T15:26:25.514Z,58.9
2018-08-30T15:31:28.012Z,51.7
2018-08-30T15:36:30.424Z,52.7
2018-08-30T15:41:32.881Z,53.1
2018-08-30T15:46:35.447Z,54.1
2018-08-30T15:56:40.158Z,56.4
2018-08-30T16:01:42.672Z,57.6
2018-08-30T16:06:45.157Z,58.7
2018-08-30T16:11:47.504Z,53.6
2018-08-30T16:21:52.498Z,48.3
2018-08-30T16:26:54.816Z,49.7
2018-08-30T16:31:57.341Z,51.6
2018-08-30T16:42:02.140Z,54.4
2018-08-30T16:52:07.431Z,56.1
2018-08-30T17:02:12.011Z,57.3
2018-08-30T17:12:16.988Z,57.6
2018-08-30T17:17:19.212Z,57.7
2018-08-30T17:27:24.113Z,58.4
2018-08-30T17:32:26.540Z,58.9
2018-08-30T17:42:31.423Z,59.3
2018-08-30T17:47:34.030Z,59.5
2018-08-30T17:52:36.379Z,59.8
2018-08-30T17:57:39.194Z,60
2018-08-30T18:02:41.373Z,60.3
2018-08-30T18:12:46.247Z,61
2018-08-30T18:17:48.609Z,61.3
2018-08-30T18:22:50.956Z,61.7
2018-08-30T18:43:00.930Z,62.5
2018-08-30T18:53:05.606Z,62.5
2018-08-30T18:58:08.200Z,62.6
2018-08-30T19:18:20.252Z,62.6
2018-08-30T19:28:22.697Z,62.7
2018-08-30T19:33:25.114Z,62.9
2018-08-30T19:43:30.003Z,62.8
2018-08-30T19:48:32.458Z,62.8
2018-08-30T19:58:37.338Z,62.5
2018-08-30T20:03:40.200Z,62.4
2018-08-30T20:08:42.527Z,62
2018-08-30T20:13:44.663Z,62.1
2018-08-30T20:18:47.668Z,61.9
2018-08-30T20:28:51.990Z,62.4
2018-08-30T20:33:54.433Z,62.7
2018-08-30T20:38:56.969Z,62.7
2018-08-30T20:43:59.353Z,62.7
2018-08-30T20:49:01.745Z,62.7
2018-08-30T20:54:04.237Z,62.8
2018-08-30T20:59:06.601Z,63.2
2018-08-30T21:09:11.477Z,64.4
2018-08-30T21:14:13.924Z,64.7
2018-08-30T21:19:16.373Z,65
2018-08-30T21:24:18.807Z,65.6
2018-08-30T21:29:21.305Z,65.3
2018-08-30T21:34:23.750Z,65.3
2018-08-30T21:39:26.127Z,65.3
2018-08-30T21:44:28.563Z,65.3
2018-08-30T21:49:31.165Z,65.3
2018-08-30T21:54:33.443Z,65.3
2018-08-30T21:59:36.010Z,65.2
2018-08-30T22:04:38.326Z,65
2018-08-30T22:09:40.904Z,65.3
2018-08-30T22:14:43.211Z,65.4
2018-08-30T22:19:45.715Z,65.8
2018-08-30T22:24:48.096Z,66.2
2018-08-30T22:29:50.737Z,66.3
2018-08-30T22:34:53.108Z,66.3
2018-08-30T22:39:55.488Z,66.3
2018-08-30T22:50:00.290Z,66.3
2018-08-30T22:55:02.790Z,66.4
2018-08-30T23:05:07.622Z,66.8
2018-08-30T23:10:10.064Z,66.8
2018-08-30T23:15:12.490Z,67.1
2018-08-30T23:20:15.150Z,67.3
2018-08-30T23:25:17.515Z,67.6
2018-08-30T23:30:19.857Z,67.8
2018-08-30T23:35:22.243Z,68.2
2018-08-30T23:40:24.689Z,68.3
2018-08-30T23:45:27.399Z,68.1
2018-08-30T23:50:29.567Z,68
2018-08-30T23:55:32.207Z,67.9
